Time;durP1;ratioP1;P1;durP2;ratioP2;P2;SDS_P1;SDS_P2;PMS_P1;PMS_P2;Temp;Humidity;BMP_temperature;BMP_pressure;BME280_temperature;BME280_humidity;BME280_pressure;Samples;Min_cycle;Max_cycle;Signal;HPM_P1;HPM_P2
2024/01/18 00:00:14;;;;;;;0.87;0.87;;;13.80;75.30;;;;;;4982674;28;20263;-60
2024/01/18 00:02:40;;;;;;;1.70;0.90;;;13.70;75.00;;;;;;4968575;28;20832;-61
2024/01/18 00:05:07;;;;;;;1.23;0.87;;;13.60;75.60;;;;;;4969549;28;20438;-61
2024/01/18 00:07:33;;;;;;;2.20;0.90;;;13.50;76.20;;;;;;4968800;28;20437;-62
2024/01/18 00:09:58;;;;;;;0.90;0.80;;;13.70;76.20;;;;;;4968327;28;20784;-63
2024/01/18 00:12:24;;;;;;;1.07;1.00;;;13.80;75.80;;;;;;4968553;28;20188;-62
2024/01/18 00:14:49;;;;;;;1.23;1.07;;;13.90;74.50;;;;;;4994187;28;20732;-60
2024/01/18 00:17:16;;;;;;;1.00;0.87;;;13.90;74.90;;;;;;4979905;28;20261;-61
2024/01/18 00:19:42;;;;;;;0.90;0.90;;;13.90;74.90;;;;;;4987926;28;20243;-61
2024/01/18 00:22:07;;;;;;;1.23;1.13;;;13.70;75.30;;;;;;4967731;28;20474;-62
2024/01/18 00:24:33;;;;;;;1.77;0.93;;;13.70;75.60;;;;;;4966081;28;20195;-61
2024/01/18 00:27:00;;;;;;;1.07;1.07;;;13.80;75.30;;;;;;4962722;28;20828;-62
2024/01/18 00:29:26;;;;;;;0.70;0.70;;;13.90;74.60;;;;;;4976143;28;20183;-59
2024/01/18 00:31:52;;;;;;;1.30;1.10;;;14.20;73.40;;;;;;4965925;28;20431;-58
2024/01/18 00:34:17;;;;;;;0.90;0.90;;;14.40;72.10;;;;;;4981798;28;20183;-59
2024/01/18 00:36:46;;;;;;;0.70;0.70;;;14.50;71.40;;;;;;4968706;28;20227;-61
2024/01/18 00:39:16;;;;;;;0.70;0.70;;;14.60;70.80;;;;;;4969991;28;20705;-61
2024/01/18 00:41:41;;;;;;;0.90;0.83;;;14.70;70.10;;;;;;4965651;28;20835;-59
2024/01/18 00:44:08;;;;;;;0.80;0.70;;;14.80;69.70;;;;;;4972984;28;20472;-59
2024/01/18 00:46:34;;;;;;;0.97;0.83;;;14.80;69.00;;;;;;4967136;28;20215;-58
2024/01/18 00:48:59;;;;;;;2.00;0.80;;;14.80;69.20;;;;;;4970533;28;20431;-60
2024/01/18 00:51:25;;;;;;;1.13;0.70;;;14.90;68.70;;;;;;4974001;28;20604;-61
2024/01/18 00:53:51;;;;;;;0.70;0.60;;;14.70;68.70;;;;;;4967713;28;20215;-61
2024/01/18 00:56:16;;;;;;;1.00;0.77;;;14.80;68.60;;;;;;4964966;28;20256;-61
2024/01/18 00:58:42;;;;;;;1.23;0.97;;;14.80;68.40;;;;;;4971643;28;20250;-57
2024/01/18 01:01:08;;;;;;;1.00;0.80;;;14.90;67.90;;;;;;4968169;28;20190;-61
2024/01/18 01:03:34;;;;;;;0.87;0.87;;;14.90;67.60;;;;;;4974148;28;20205;-58
2024/01/18 01:05:59;;;;;;;1.17;0.70;;;15.10;67.00;;;;;;4967157;28;20454;-62
2024/01/18 01:08:26;;;;;;;0.90;0.90;;;15.10;66.60;;;;;;4979774;28;20183;-61
2024/01/18 01:10:52;;;;;;;0.80;0.80;;;15.00;66.80;;;;;;4968780;28;20175;-59
2024/01/18 01:13:17;;;;;;;0.80;0.80;;;15.00;66.60;;;;;;4969206;28;20472;-60
2024/01/18 01:15:43;;;;;;;0.70;0.70;;;15.00;66.60;;;;;;4967013;28;20238;-62
2024/01/18 01:18:10;;;;;;;0.80;0.80;;;14.90;67.10;;;;;;4991521;28;20207;-61
2024/01/18 01:20:36;;;;;;;1.03;0.87;;;14.90;67.10;;;;;;4969170;28;20179;-61
2024/01/18 01:23:02;;;;;;;1.03;0.90;;;14.80;67.40;;;;;;4978707;28;20839;-61
2024/01/18 01:25:28;;;;;;;1.20;1.10;;;14.90;67.10;;;;;;4968810;28;20204;-59
2024/01/18 01:27:54;;;;;;;1.30;1.20;;;14.70;67.90;;;;;;4965823;28;20446;-60
2024/01/18 01:30:19;;;;;;;1.30;0.87;;;14.70;67.60;;;;;;4973639;28;20221;-61
2024/01/18 01:32:45;;;;;;;0.80;0.70;;;14.60;68.10;;;;;;4967008;28;20191;-61
2024/01/18 01:35:11;;;;;;;0.80;0.77;;;14.70;67.80;;;;;;4968808;28;20183;-60
2024/01/18 01:37:37;;;;;;;3.50;1.30;;;14.70;67.30;;;;;;4965400;28;20219;-59
2024/01/18 01:40:05;;;;;;;1.87;0.70;;;14.20;68.70;;;;;;4980426;28;20483;-60
2024/01/18 01:42:31;;;;;;;1.20;1.00;;;14.40;68.70;;;;;;4968660;28;20419;-61
2024/01/18 01:44:56;;;;;;;0.80;0.80;;;14.40;68.70;;;;;;4969182;28;20418;-61
2024/01/18 01:47:22;;;;;;;1.17;1.07;;;14.40;69.20;;;;;;4978472;28;20675;-61
2024/01/18 01:49:48;;;;;;;0.70;0.70;;;14.60;68.50;;;;;;4967393;28;20209;-61
2024/01/18 01:52:15;;;;;;;1.73;1.00;;;14.50;68.20;;;;;;4969843;28;20187;-61
2024/01/18 01:54:41;;;;;;;1.50;0.73;;;14.50;68.80;;;;;;4971361;28;20458;-61
2024/01/18 01:57:07;;;;;;;0.80;0.80;;;14.70;68.30;;;;;;4966745;28;20851;-60
2024/01/18 01:59:34;;;;;;;1.13;1.07;;;14.70;68.00;;;;;;4968451;28;20476;-59
2024/01/18 02:01:59;;;;;;;1.27;1.10;;;14.80;67.80;;;;;;4966968;28;20994;-60
2024/01/18 02:04:26;;;;;;;0.63;0.63;;;14.80;67.50;;;;;;4967333;28;20526;-57
2024/01/18 02:06:53;;;;;;;0.80;0.80;;;14.90;67.30;;;;;;4963671;28;20295;-58
2024/01/18 02:09:20;;;;;;;0.77;0.77;;;14.90;67.00;;;;;;4980987;28;20875;-60
2024/01/18 02:11:45;;;;;;;1.23;0.63;;;15.00;67.00;;;;;;4990865;28;20816;-62
2024/01/18 02:14:12;;;;;;;0.80;0.70;;;14.90;67.40;;;;;;4968469;28;20430;-59
2024/01/18 02:16:37;;;;;;;0.80;0.80;;;14.30;68.90;;;;;;4973801;28;20230;-61
2024/01/18 02:19:03;;;;;;;1.30;0.70;;;14.30;70.00;;;;;;4966096;28;20482;-57
2024/01/18 02:21:29;;;;;;;1.13;0.77;;;14.50;69.20;;;;;;4965232;28;20564;-60
2024/01/18 02:24:05;;;;;;;0.87;0.80;;;14.40;69.50;;;;;;4958319;28;20431;-60
2024/01/18 02:26:30;;;;;;;0.83;0.70;;;14.20;69.60;;;;;;4957980;28;20689;-60
2024/01/18 02:28:57;;;;;;;0.70;0.60;;;14.30;69.80;;;;;;4958262;28;20448;-60
2024/01/18 02:31:23;;;;;;;1.50;1.03;;;14.50;69.30;;;;;;4958848;28;20191;-62
2024/01/18 02:33:50;;;;;;;0.60;0.60;;;14.40;69.10;;;;;;4970868;28;20542;-60
2024/01/18 02:36:16;;;;;;;0.70;0.70;;;14.50;69.20;;;;;;4964715;28;20533;-60
2024/01/18 02:38:43;;;;;;;1.00;0.83;;;14.60;68.50;;;;;;4975618;28;21268;-57
2024/01/18 02:41:08;;;;;;;0.80;0.80;;;14.40;68.90;;;;;;4966691;28;20278;-59
2024/01/18 02:43:34;;;;;;;0.80;0.80;;;14.40;69.30;;;;;;4979139;28;20526;-57
2024/01/18 02:45:59;;;;;;;1.60;0.77;;;14.50;68.80;;;;;;4963827;28;20265;-58
2024/01/18 02:48:25;;;;;;;0.90;0.87;;;14.50;69.00;;;;;;4985262;28;20274;-60
2024/01/18 02:50:51;;;;;;;0.80;0.70;;;14.30;69.10;;;;;;4965581;28;20207;-60
2024/01/18 02:53:20;;;;;;;0.90;0.70;;;14.20;69.60;;;;;;4959728;28;20289;-60
2024/01/18 02:55:45;;;;;;;0.60;0.60;;;14.20;69.80;;;;;;4958717;28;20218;-61
2024/01/18 02:58:11;;;;;;;0.77;0.70;;;14.20;70.30;;;;;;4960428;28;21017;-61
2024/01/18 03:00:38;;;;;;;0.70;0.70;;;14.10;71.10;;;;;;4967470;28;20195;-61
2024/01/18 03:03:04;;;;;;;1.27;0.60;;;14.10;71.90;;;;;;4968040;28;20191;-62
2024/01/18 03:05:31;;;;;;;0.90;0.70;;;14.00;71.80;;;;;;4980417;28;20547;-59
2024/01/18 03:07:56;;;;;;;0.80;0.77;;;13.90;72.90;;;;;;4991109;28;20466;-60
2024/01/18 03:10:22;;;;;;;0.80;0.80;;;13.80;73.80;;;;;;4990734;28;20419;-61
2024/01/18 03:12:48;;;;;;;0.70;0.60;;;13.80;73.80;;;;;;4967652;28;20211;-60
2024/01/18 03:15:13;;;;;;;0.80;0.80;;;13.90;73.70;;;;;;4993412;28;20200;-59
2024/01/18 03:17:39;;;;;;;0.80;0.70;;;13.90;73.90;;;;;;4968148;28;20191;-60
2024/01/18 03:20:07;;;;;;;0.90;0.90;;;13.80;74.10;;;;;;4958544;28;20281;-58
2024/01/18 03:22:34;;;;;;;4.57;0.97;;;14.10;73.60;;;;;;4959263;28;20201;-57
2024/01/18 03:25:00;;;;;;;0.80;0.80;;;14.10;73.50;;;;;;4959284;28;20512;-62
2024/01/18 03:27:26;;;;;;;1.33;0.90;;;13.90;73.90;;;;;;4959276;28;20450;-60
2024/01/18 03:29:51;;;;;;;1.10;0.90;;;13.80;74.60;;;;;;4958363;28;20491;-61
2024/01/18 03:32:17;;;;;;;2.77;2.57;;;14.00;74.30;;;;;;4958390;28;20195;-61
2024/01/18 03:34:42;;;;;;;1.47;0.80;;;14.20;73.50;;;;;;4959981;28;20196;-59
2024/01/18 03:37:08;;;;;;;1.20;1.10;;;14.30;73.00;;;;;;4957700;28;20211;-61
2024/01/18 03:39:37;;;;;;;1.93;1.43;;;14.50;72.80;;;;;;4963129;28;20223;-58
2024/01/18 03:42:03;;;;;;;0.97;0.97;;;14.60;70.90;;;;;;4975231;28;20198;-61
2024/01/18 03:44:28;;;;;;;1.43;1.33;;;14.70;70.10;;;;;;4970969;28;20415;-60
2024/01/18 03:46:54;;;;;;;1.67;1.30;;;14.80;69.40;;;;;;4968370;28;20216;-61
2024/01/18 03:49:20;;;;;;;1.90;1.33;;;14.90;68.70;;;;;;4962159;28;20200;-60
2024/01/18 03:51:46;;;;;;;1.60;1.50;;;15.00;68.40;;;;;;4975170;28;20187;-61
2024/01/18 03:54:11;;;;;;;3.50;1.60;;;15.00;68.00;;;;;;4970492;28;20448;-57
2024/01/18 03:56:37;;;;;;;1.97;1.73;;;15.00;67.60;;;;;;4980078;28;20215;-59
2024/01/18 03:59:02;;;;;;;4.90;4.50;;;15.00;67.40;;;;;;4981402;28;20718;-61
2024/01/18 04:01:32;;;;;;;6.20;5.57;;;14.90;66.80;;;;;;4967344;28;20281;-59
2024/01/18 04:03:57;;;;;;;6.40;5.80;;;14.90;66.60;;;;;;4966739;28;20677;-60
2024/01/18 04:06:23;;;;;;;7.10;6.40;;;14.70;64.30;;;;;;4962578;28;20470;-60
2024/01/18 04:08:49;;;;;;;6.97;6.10;;;14.50;63.80;;;;;;4974154;28;20215;-58
2024/01/18 04:11:14;;;;;;;7.03;6.37;;;14.50;63.90;;;;;;4970494;28;20211;-60
2024/01/18 04:13:40;;;;;;;6.37;5.87;;;14.40;63.70;;;;;;4966055;28;20217;-60
2024/01/18 04:16:06;;;;;;;7.70;6.03;;;14.30;63.60;;;;;;4962159;28;20215;-61
2024/01/18 04:18:31;;;;;;;7.60;7.00;;;14.20;63.70;;;;;;4962176;28;20186;-60
2024/01/18 04:20:57;;;;;;;6.17;5.57;;;14.10;63.90;;;;;;4966476;28;20188;-58
2024/01/18 04:23:22;;;;;;;7.20;6.60;;;14.00;64.00;;;;;;4964084;28;20191;-60
2024/01/18 04:25:51;;;;;;;7.13;6.50;;;13.90;64.10;;;;;;4967531;28;20215;-60
2024/01/18 04:28:19;;;;;;;7.50;6.80;;;13.90;64.40;;;;;;4972909;28;20245;-60
2024/01/18 04:30:44;;;;;;;7.80;6.97;;;13.80;64.40;;;;;;4965614;28;20446;-61
2024/01/18 04:33:10;;;;;;;7.33;6.73;;;13.90;64.30;;;;;;4967448;28;20438;-60
2024/01/18 04:35:35;;;;;;;7.13;6.53;;;13.90;64.00;;;;;;4967722;28;20288;-62
2024/01/18 04:38:01;;;;;;;7.97;7.17;;;13.80;63.70;;;;;;4968442;28;20257;-59
2024/01/18 04:40:26;;;;;;;7.40;6.70;;;13.80;63.50;;;;;;4968047;28;20223;-58
2024/01/18 04:42:53;;;;;;;8.00;7.30;;;13.80;63.40;;;;;;4971398;28;20539;-60
2024/01/18 04:45:19;;;;;;;8.20;7.40;;;13.70;63.50;;;;;;4962182;28;20223;-64
2024/01/18 04:47:45;;;;;;;7.23;6.53;;;13.60;63.80;;;;;;4967091;28;20435;-58
2024/01/18 04:50:11;;;;;;;8.57;7.77;;;13.50;64.00;;;;;;4966231;28;20542;-60
2024/01/18 04:52:36;;;;;;;8.93;7.63;;;13.50;64.40;;;;;;4966718;28;20534;-60
2024/01/18 04:55:05;;;;;;;7.43;6.80;;;13.40;64.30;;;;;;4966994;28;20298;-61
2024/01/18 04:57:32;;;;;;;8.33;7.53;;;13.40;64.30;;;;;;4961978;28;20211;-61
2024/01/18 04:59:58;;;;;;;8.93;8.20;;;13.30;64.40;;;;;;4965897;28;20915;-62
2024/01/18 05:02:23;;;;;;;8.37;7.07;;;13.30;64.60;;;;;;4965428;28;20518;-61
2024/01/18 05:04:49;;;;;;;8.50;7.60;;;13.30;64.80;;;;;;4981619;28;20526;-59
2024/01/18 05:07:14;;;;;;;8.10;7.40;;;13.20;64.70;;;;;;4966247;28;20254;-60
2024/01/18 05:09:40;;;;;;;8.10;7.37;;;13.30;64.60;;;;;;4962147;28;20184;-61
2024/01/18 05:12:07;;;;;;;8.00;7.20;;;13.30;64.20;;;;;;4965276;28;20202;-60
2024/01/18 05:14:32;;;;;;;7.60;6.80;;;13.30;64.30;;;;;;4980772;28;20937;-61
2024/01/18 05:17:05;;;;;;;8.20;7.37;;;13.30;64.30;;;;;;4967149;28;20462;-60
2024/01/18 05:19:31;;;;;;;8.20;7.30;;;13.30;64.00;;;;;;4962136;28;20632;-61
2024/01/18 05:21:57;;;;;;;8.10;7.30;;;13.20;63.90;;;;;;4968746;28;20419;-61
2024/01/18 05:24:22;;;;;;;9.73;7.67;;;13.20;63.90;;;;;;4969555;28;20650;-60
2024/01/18 05:26:48;;;;;;;9.10;8.10;;;13.20;64.00;;;;;;4967550;28;20678;-60
2024/01/18 05:29:13;;;;;;;10.53;8.23;;;13.20;63.90;;;;;;4960284;28;22101;-61
2024/01/18 05:31:39;;;;;;;9.43;8.00;;;13.20;64.00;;;;;;4959567;28;20741;-61
2024/01/18 05:34:05;;;;;;;8.60;7.80;;;13.20;64.10;;;;;;4959692;28;20198;-61
2024/01/18 05:36:31;;;;;;;8.00;7.20;;;13.20;64.10;;;;;;4960432;28;20470;-62
2024/01/18 05:38:56;;;;;;;13.80;12.40;;;13.10;64.20;;;;;;4961343;28;20536;-61
2024/01/18 05:41:22;;;;;;;13.43;10.97;;;13.00;64.50;;;;;;4964021;28;20192;-58
2024/01/18 05:43:47;;;;;;;10.20;9.20;;;13.00;64.60;;;;;;4961506;28;20234;-60
2024/01/18 05:46:13;;;;;;;9.60;8.60;;;13.00;64.70;;;;;;4964567;28;20293;-60
2024/01/18 05:48:38;;;;;;;9.80;8.40;;;13.00;64.90;;;;;;4961294;28;20214;-61
2024/01/18 05:51:05;;;;;;;9.30;8.40;;;13.00;65.00;;;;;;4975614;28;20213;-60
2024/01/18 05:53:31;;;;;;;8.40;7.60;;;13.00;65.10;;;;;;4966501;28;20206;-62
2024/01/18 05:55:59;;;;;;;29.60;26.63;;;13.00;65.10;;;;;;4975756;28;20505;-62
2024/01/18 05:58:25;;;;;;;8.80;8.00;;;12.90;65.00;;;;;;4967648;28;20179;-61
2024/01/18 06:00:51;;;;;;;8.13;7.30;;;12.80;65.20;;;;;;4978305;28;20443;-61
2024/01/18 06:03:17;;;;;;;8.47;7.40;;;12.70;65.50;;;;;;4974683;28;20502;-63
2024/01/18 06:05:42;;;;;;;7.50;6.80;;;12.60;65.90;;;;;;4985170;28;20699;-60
2024/01/18 06:08:08;;;;;;;7.50;6.80;;;12.30;66.20;;;;;;5000470;28;20468;-60
2024/01/18 06:10:33;;;;;;;6.53;6.03;;;12.10;66.60;;;;;;4967152;28;20667;-61
2024/01/18 06:12:59;;;;;;;5.00;4.60;;;12.10;66.70;;;;;;4972633;28;20190;-63
2024/01/18 06:15:25;;;;;;;4.03;3.67;;;11.80;66.10;;;;;;4982989;28;20179;-61
2024/01/18 06:17:51;;;;;;;2.90;2.70;;;11.60;65.40;;;;;;4992038;28;20258;-61
2024/01/18 06:20:16;;;;;;;2.33;2.23;;;11.40;65.30;;;;;;4971458;28;20226;-62
2024/01/18 06:22:42;;;;;;;3.00;2.67;;;11.40;65.00;;;;;;4984755;28;20184;-62
2024/01/18 06:25:07;;;;;;;3.57;3.27;;;11.50;64.30;;;;;;4966033;28;20222;-63
2024/01/18 06:27:34;;;;;;;4.97;3.07;;;11.50;63.60;;;;;;4980375;28;20195;-64
2024/01/18 06:30:00;;;;;;;3.00;2.80;;;11.50;63.90;;;;;;4976551;28;20194;-65
2024/01/18 06:32:26;;;;;;;2.60;2.40;;;11.50;63.70;;;;;;4966420;28;20811;-63
2024/01/18 06:34:51;;;;;;;2.50;2.30;;;11.60;63.50;;;;;;4968045;28;20189;-64
2024/01/18 06:37:17;;;;;;;2.47;2.27;;;11.60;63.50;;;;;;4969503;28;20335;-62
2024/01/18 06:39:42;;;;;;;2.40;2.30;;;11.50;63.30;;;;;;5006390;28;20218;-61
2024/01/18 06:42:08;;;;;;;2.30;2.10;;;11.60;63.10;;;;;;4968689;28;20203;-63
2024/01/18 06:44:34;;;;;;;2.03;1.93;;;11.70;62.80;;;;;;4965855;28;20195;-62
2024/01/18 06:47:00;;;;;;;2.20;2.10;;;11.70;62.40;;;;;;4978706;28;20516;-65
2024/01/18 06:49:26;;;;;;;2.03;1.93;;;11.70;62.00;;;;;;4966770;28;20438;-60
2024/01/18 06:51:52;;;;;;;2.03;1.93;;;11.70;61.70;;;;;;4970583;28;20864;-62
2024/01/18 06:54:21;;;;;;;2.10;2.00;;;11.60;61.40;;;;;;4964101;28;20546;-65
2024/01/18 06:56:47;;;;;;;2.00;1.90;;;11.60;61.50;;;;;;4969795;28;20204;-63
2024/01/18 06:59:14;;;;;;;2.33;2.17;;;11.60;61.60;;;;;;4966118;28;20612;-62
2024/01/18 07:01:40;;;;;;;2.20;2.00;;;11.70;61.60;;;;;;4971488;28;20811;-63
2024/01/18 07:04:05;;;;;;;2.30;2.20;;;11.70;61.30;;;;;;4976870;28;20450;-62
2024/01/18 07:06:31;;;;;;;2.30;2.10;;;11.70;61.10;;;;;;4965425;28;20797;-60
2024/01/18 07:08:56;;;;;;;2.20;1.97;;;11.80;61.20;;;;;;4968216;28;20211;-61
2024/01/18 07:11:22;;;;;;;1.80;1.70;;;11.80;61.10;;;;;;4965704;28;20188;-64
2024/01/18 07:13:47;;;;;;;1.80;1.70;;;11.70;60.80;;;;;;4982578;28;20611;-63
2024/01/18 07:16:13;;;;;;;1.60;1.50;;;11.60;60.90;;;;;;4975418;28;20292;-63
2024/01/18 07:18:39;;;;;;;1.60;1.50;;;11.50;60.80;;;;;;4971940;28;20649;-62
2024/01/18 07:21:04;;;;;;;1.57;1.47;;;11.60;60.90;;;;;;4969499;28;20183;-61
2024/01/18 07:23:30;;;;;;;1.80;1.70;;;11.60;60.80;;;;;;4971522;28;20192;-63
2024/01/18 07:25:56;;;;;;;2.33;1.50;;;11.50;60.30;;;;;;4969832;28;20195;-62
2024/01/18 07:28:22;;;;;;;1.67;1.57;;;11.50;60.70;;;;;;4988378;28;20211;-62
2024/01/18 07:30:48;;;;;;;1.90;1.80;;;11.50;60.90;;;;;;4970951;28;20426;-62
2024/01/18 07:33:14;;;;;;;2.07;1.50;;;11.60;60.80;;;;;;4971446;28;20271;-63
2024/01/18 07:35:39;;;;;;;1.97;1.70;;;11.60;60.70;;;;;;4972460;28;20538;-61
2024/01/18 07:38:05;;;;;;;1.60;1.37;;;11.50;60.50;;;;;;4967381;28;20572;-62
2024/01/18 07:40:30;;;;;;;1.80;1.70;;;11.50;60.60;;;;;;4970694;28;20219;-63
2024/01/18 07:42:56;;;;;;;1.73;1.63;;;11.50;60.30;;;;;;4961856;28;20181;-63
2024/01/18 07:45:21;;;;;;;2.80;1.90;;;11.50;60.40;;;;;;4982989;28;20187;-62
2024/01/18 07:47:47;;;;;;;1.70;1.60;;;11.40;60.40;;;;;;4972137;28;20198;-62
2024/01/18 07:50:12;;;;;;;2.50;2.20;;;11.30;60.60;;;;;;4978775;28;20207;-63
2024/01/18 07:52:38;;;;;;;3.50;2.00;;;11.30;60.90;;;;;;4971674;28;20198;-59
2024/01/18 07:55:08;;;;;;;1.80;1.70;;;11.20;61.10;;;;;;4970499;28;20226;-62
2024/01/18 07:57:34;;;;;;;1.80;1.70;;;11.20;61.50;;;;;;4964383;28;20593;-60
2024/01/18 08:00:00;;;;;;;2.53;1.80;;;11.20;61.50;;;;;;4982004;28;20521;-62
2024/01/18 08:02:26;;;;;;;1.97;1.87;;;11.10;61.40;;;;;;4967771;28;20434;-62
2024/01/18 08:04:52;;;;;;;1.70;1.53;;;11.00;61.20;;;;;;4974036;28;20805;-60
2024/01/18 08:07:18;;;;;;;4.27;1.77;;;11.00;61.70;;;;;;4965977;28;20876;-62
2024/01/18 08:09:43;;;;;;;2.13;1.77;;;11.00;61.70;;;;;;4963004;28;20684;-59
2024/01/18 08:12:09;;;;;;;2.20;2.00;;;11.00;61.60;;;;;;4962531;28;20807;-61
2024/01/18 08:14:41;;;;;;;1.63;1.53;;;11.00;61.80;;;;;;4994150;28;20188;-63
2024/01/18 08:17:07;;;;;;;1.50;1.40;;;10.90;62.20;;;;;;4958046;28;20596;-60
2024/01/18 08:19:33;;;;;;;2.20;1.70;;;10.90;62.20;;;;;;4969438;28;20603;-60
2024/01/18 08:21:59;;;;;;;1.50;1.40;;;10.70;62.40;;;;;;4966766;28;20529;-65
2024/01/18 08:24:25;;;;;;;1.73;1.63;;;10.70;62.60;;;;;;4967221;28;20435;-62
2024/01/18 08:26:50;;;;;;;11.40;7.07;;;10.70;62.40;;;;;;4965557;28;20238;-61
2024/01/18 08:29:16;;;;;;;2.43;2.17;;;10.60;62.50;;;;;;4973498;28;20267;-62
2024/01/18 08:31:41;;;;;;;1.90;1.80;;;10.50;62.90;;;;;;4988209;28;20317;-62
2024/01/18 08:34:07;;;;;;;1.80;1.70;;;10.40;63.30;;;;;;4968681;28;20190;-62
2024/01/18 08:36:33;;;;;;;2.20;2.00;;;10.30;63.70;;;;;;4964377;28;20202;-61
2024/01/18 08:38:59;;;;;;;2.23;1.90;;;10.30;64.00;;;;;;4984440;28;20254;-62
2024/01/18 08:41:25;;;;;;;2.50;2.30;;;10.20;63.80;;;;;;4963190;28;20180;-62
2024/01/18 08:43:50;;;;;;;2.67;2.47;;;10.20;63.70;;;;;;4967928;28;20451;-61
2024/01/18 08:46:16;;;;;;;2.03;1.93;;;10.00;64.00;;;;;;4964969;28;20265;-62
2024/01/18 08:48:41;;;;;;;2.00;1.90;;;10.00;64.00;;;;;;4968841;28;20662;-61
2024/01/18 08:51:13;;;;;;;2.20;2.00;;;10.10;64.10;;;;;;4972013;28;20241;-62
2024/01/18 08:53:40;;;;;;;1.83;1.73;;;10.00;64.10;;;;;;4969958;28;20607;-61
2024/01/18 08:56:06;;;;;;;2.40;2.30;;;9.70;64.80;;;;;;4974866;28;20486;-62
2024/01/18 08:58:32;;;;;;;2.30;2.20;;;9.60;65.10;;;;;;4968034;28;20434;-62
2024/01/18 09:00:57;;;;;;;6.50;2.40;;;9.60;65.00;;;;;;4982425;28;20443;-62
2024/01/18 09:03:23;;;;;;;2.13;2.03;;;9.40;65.50;;;;;;4974052;28;20306;-62
2024/01/18 09:05:49;;;;;;;2.30;2.10;;;9.40;65.80;;;;;;4968225;28;20211;-59
2024/01/18 09:08:15;;;;;;;2.70;2.10;;;9.20;65.80;;;;;;4967979;28;20738;-59
2024/01/18 09:10:40;;;;;;;2.87;2.50;;;9.30;66.00;;;;;;4991222;28;20510;-62
2024/01/18 09:13:06;;;;;;;2.60;2.40;;;9.30;65.80;;;;;;4966702;28;20183;-60
2024/01/18 09:15:34;;;;;;;2.60;2.40;;;9.30;65.60;;;;;;4978532;28;20195;-62
2024/01/18 09:18:00;;;;;;;2.13;1.93;;;9.30;65.90;;;;;;4988184;28;20278;-61
2024/01/18 09:20:26;;;;;;;2.93;2.30;;;9.30;66.10;;;;;;4970340;28;20490;-61
2024/01/18 09:22:52;;;;;;;4.30;3.20;;;9.30;66.50;;;;;;4972503;28;20489;-60
2024/01/18 09:25:17;;;;;;;2.80;2.60;;;9.20;66.30;;;;;;4967991;28;20591;-60
2024/01/18 09:27:43;;;;;;;2.57;2.37;;;9.10;66.00;;;;;;4967883;28;20183;-60
2024/01/18 09:30:09;;;;;;;2.80;2.60;;;9.00;66.70;;;;;;4968957;28;20625;-60
2024/01/18 09:32:35;;;;;;;2.90;2.60;;;9.00;66.80;;;;;;4987698;28;20179;-62
2024/01/18 09:35:01;;;;;;;5.57;2.93;;;8.90;67.10;;;;;;4978747;28;20853;-60
2024/01/18 09:37:27;;;;;;;3.70;3.33;;;8.90;67.30;;;;;;4995081;28;20579;-60
2024/01/18 09:39:53;;;;;;;5.73;3.00;;;9.00;67.20;;;;;;4978130;28;20223;-61
2024/01/18 09:42:21;;;;;;;4.40;3.17;;;8.90;67.30;;;;;;4967060;28;20450;-62
2024/01/18 09:44:48;;;;;;;3.87;3.27;;;9.00;67.50;;;;;;4969019;28;20175;-60
2024/01/18 09:47:18;;;;;;;3.23;2.93;;;9.00;67.60;;;;;;5002759;28;20443;-59
2024/01/18 09:49:45;;;;;;;3.07;2.77;;;9.00;67.20;;;;;;4965660;28;20454;-60
2024/01/18 09:52:11;;;;;;;2.70;2.50;;;8.90;66.80;;;;;;4978547;28;20458;-62
2024/01/18 09:54:38;;;;;;;2.70;2.50;;;8.90;67.30;;;;;;4963663;28;20447;-62
2024/01/18 09:57:08;;;;;;;4.43;2.33;;;8.90;67.60;;;;;;4962825;28;20462;-63
2024/01/18 09:59:35;;;;;;;3.23;2.93;;;8.70;67.70;;;;;;4960394;28;20475;-61
2024/01/18 10:02:01;;;;;;;2.60;2.40;;;8.70;68.00;;;;;;4971973;28;20455;-60
2024/01/18 10:04:28;;;;;;;2.47;2.27;;;8.60;68.20;;;;;;4975994;28;20564;-60
2024/01/18 10:06:54;;;;;;;2.47;2.27;;;8.50;68.40;;;;;;4960678;28;20834;-61
2024/01/18 10:09:20;;;;;;;2.50;2.30;;;8.30;68.80;;;;;;4960910;28;20464;-61
2024/01/18 10:11:46;;;;;;;2.50;2.30;;;8.30;69.50;;;;;;4964309;28;20439;-61
2024/01/18 10:14:12;;;;;;;4.40;2.87;;;8.50;69.40;;;;;;4969923;28;20911;-62
2024/01/18 10:16:39;;;;;;;1.97;1.87;;;8.50;68.60;;;;;;4959007;28;20478;-60
2024/01/18 10:19:06;;;;;;;2.87;2.40;;;8.30;69.00;;;;;;4964847;28;22357;-60
2024/01/18 10:21:33;;;;;;;3.93;2.60;;;8.30;69.50;;;;;;4963111;28;20435;-58
2024/01/18 10:23:59;;;;;;;2.80;2.60;;;8.00;70.30;;;;;;4964082;28;20450;-62
2024/01/18 10:26:31;;;;;;;2.00;1.80;;;7.90;70.70;;;;;;4961169;28;21080;-61
2024/01/18 10:28:57;;;;;;;2.80;2.60;;;8.00;70.50;;;;;;4960335;28;20196;-60
2024/01/18 10:31:23;;;;;;;2.87;2.67;;;7.80;70.50;;;;;;4970314;28;20462;-62
2024/01/18 10:33:49;;;;;;;2.33;2.17;;;7.60;71.00;;;;;;4972396;28;21025;-62
2024/01/18 10:36:15;;;;;;;2.30;2.10;;;7.50;72.20;;;;;;4981683;28;20592;-62
2024/01/18 10:38:41;;;;;;;2.50;2.10;;;7.30;71.80;;;;;;4966869;28;20179;-63
2024/01/18 10:41:08;;;;;;;3.07;2.87;;;7.40;71.60;;;;;;4968955;28;20266;-62
2024/01/18 10:43:35;;;;;;;2.27;2.13;;;7.50;71.30;;;;;;4967844;28;20478;-64
2024/01/18 10:46:01;;;;;;;2.40;2.20;;;7.40;70.90;;;;;;4981967;28;20451;-62
2024/01/18 10:48:29;;;;;;;3.17;2.87;;;7.50;70.90;;;;;;4969803;28;20468;-62
2024/01/18 10:50:58;;;;;;;2.70;2.50;;;7.40;70.60;;;;;;4990763;28;20438;-63
2024/01/18 10:53:25;;;;;;;2.90;2.70;;;7.50;71.00;;;;;;4968626;28;20841;-62
2024/01/18 10:55:51;;;;;;;2.83;2.63;;;7.60;70.70;;;;;;4987460;28;20535;-63
2024/01/18 10:58:18;;;;;;;3.00;2.70;;;7.60;70.20;;;;;;4968991;28;20430;-64
2024/01/18 11:00:46;;;;;;;3.00;2.73;;;7.50;70.10;;;;;;4969633;28;20502;-61
2024/01/18 11:03:13;;;;;;;3.27;3.00;;;7.50;70.60;;;;;;4973040;28;20443;-62
2024/01/18 11:05:41;;;;;;;3.13;2.93;;;7.50;70.70;;;;;;4969265;28;20458;-63
2024/01/18 11:08:07;;;;;;;2.73;2.53;;;7.60;70.30;;;;;;4968979;28;20446;-61
2024/01/18 11:10:34;;;;;;;2.60;2.40;;;7.70;69.90;;;;;;4981096;28;20429;-64
2024/01/18 11:13:00;;;;;;;3.23;2.73;;;7.60;69.90;;;;;;4965299;28;20447;-64
2024/01/18 11:15:26;;;;;;;3.20;2.73;;;7.60;70.20;;;;;;4968410;28;20451;-61
2024/01/18 11:17:52;;;;;;;3.13;2.80;;;7.80;69.90;;;;;;4969734;28;20518;-63
2024/01/18 11:20:18;;;;;;;3.43;3.13;;;7.70;69.50;;;;;;4968577;28;21130;-64
2024/01/18 11:22:45;;;;;;;3.97;2.97;;;7.70;70.20;;;;;;4969681;28;20191;-64
2024/01/18 11:25:12;;;;;;;2.97;2.67;;;7.80;69.20;;;;;;4968876;28;20478;-62
2024/01/18 11:27:39;;;;;;;3.03;2.73;;;7.90;68.30;;;;;;4974238;28;20437;-63
2024/01/18 11:30:32;;;;;;;2.90;2.60;;;7.90;67.60;;;;;;4969632;28;20443;-64
2024/01/18 11:32:58;;;;;;;3.07;2.87;;;8.00;67.40;;;;;;4976858;28;20807;-62
2024/01/18 11:35:24;;;;;;;3.20;3.00;;;7.70;67.50;;;;;;4968922;28;20414;-63
2024/01/18 11:37:49;;;;;;;3.17;2.87;;;7.60;68.10;;;;;;4981461;28;20184;-63
2024/01/18 11:40:18;;;;;;;3.17;2.87;;;7.50;67.80;;;;;;4965394;28;20775;-62
2024/01/18 11:42:47;;;;;;;3.30;3.10;;;7.40;67.90;;;;;;4964618;28;20199;-62
2024/01/18 11:45:12;;;;;;;2.90;2.70;;;7.20;68.40;;;;;;4966263;28;20866;-62
2024/01/18 11:47:39;;;;;;;3.30;3.00;;;7.30;68.50;;;;;;4963679;28;20507;-63
2024/01/18 11:50:06;;;;;;;3.07;2.87;;;7.40;68.30;;;;;;4963647;28;20191;-59
2024/01/18 11:52:33;;;;;;;3.30;3.00;;;7.40;68.10;;;;;;4962260;28;21008;-62
2024/01/18 11:55:00;;;;;;;2.70;2.50;;;7.50;67.80;;;;;;4967740;28;20957;-61
2024/01/18 11:57:26;;;;;;;3.20;3.00;;;7.50;67.20;;;;;;4968312;28;20525;-61
2024/01/18 11:59:54;;;;;;;3.30;3.00;;;7.60;67.00;;;;;;4963339;28;20482;-61
2024/01/18 12:02:21;;;;;;;3.10;2.90;;;7.60;67.20;;;;;;4958275;28;20930;-60
2024/01/18 12:04:50;;;;;;;3.40;3.17;;;7.60;66.70;;;;;;4964290;28;20446;-62
2024/01/18 12:07:17;;;;;;;3.37;3.07;;;7.50;67.50;;;;;;4963766;28;20458;-60
2024/01/18 12:09:43;;;;;;;3.73;3.43;;;7.50;66.80;;;;;;4967217;28;20438;-62
2024/01/18 12:12:09;;;;;;;3.90;3.00;;;7.50;66.90;;;;;;4966030;28;20488;-58
2024/01/18 12:14:43;;;;;;;3.93;3.23;;;7.50;66.60;;;;;;4957911;28;20459;-61
2024/01/18 12:17:10;;;;;;;3.43;3.13;;;7.50;66.70;;;;;;4956355;28;20605;-59
2024/01/18 12:19:37;;;;;;;3.37;3.07;;;7.40;66.90;;;;;;4981021;28;20839;-60
2024/01/18 12:22:11;;;;;;;3.50;3.20;;;7.40;67.10;;;;;;4973767;28;20438;-59
2024/01/18 12:24:39;;;;;;;3.80;3.50;;;7.40;67.00;;;;;;4968398;28;20443;-61
2024/01/18 12:27:06;;;;;;;4.17;3.87;;;7.20;67.40;;;;;;4973488;28;20466;-60
2024/01/18 12:29:38;;;;;;;4.20;3.90;;;7.20;67.40;;;;;;4992108;28;20773;-60
2024/01/18 12:32:04;;;;;;;3.70;3.40;;;7.10;67.90;;;;;;4986051;28;20449;-61
2024/01/18 12:34:32;;;;;;;3.27;2.97;;;7.00;68.00;;;;;;4965357;28;20467;-61
2024/01/18 12:36:58;;;;;;;3.73;3.43;;;7.10;68.10;;;;;;4967365;28;21020;-60
2024/01/18 12:39:24;;;;;;;3.10;2.90;;;7.10;68.10;;;;;;5006325;28;20536;-62
2024/01/18 12:41:52;;;;;;;3.90;3.03;;;7.20;67.70;;;;;;4970105;28;20473;-59
2024/01/18 12:44:17;;;;;;;3.70;3.40;;;7.10;67.50;;;;;;4980203;28;20592;-61